Time;durP1;ratioP1;P1;durP2;ratioP2;P2;SDS_P1;SDS_P2;PMS_P1;PMS_P2;Temp;Humidity;BMP_temperature;BMP_pressure;BME280_temperature;BME280_humidity;BME280_pressure;Samples;Min_cycle;Max_cycle;Signal;HPM_P1;HPM_P2
2023/04/09 00:02:13;;;;;;;40.55;21.20;;;8.20;99.90;;;;;;5084873;28;20123;-61
2023/04/09 00:04:40;;;;;;;33.97;17.58;;;8.20;99.90;;;;;;5085884;28;20055;-60
2023/04/09 00:07:07;;;;;;;29.98;18.23;;;8.20;99.90;;;;;;5083901;28;20072;-61
2023/04/09 00:09:34;;;;;;;37.03;20.13;;;8.20;99.90;;;;;;5087097;28;20044;-60
2023/04/09 00:12:02;;;;;;;35.83;18.80;;;8.20;99.90;;;;;;5086446;28;20686;-60
2023/04/09 00:14:29;;;;;;;38.22;20.65;;;8.20;99.90;;;;;;5087231;28;20522;-60
2023/04/09 00:16:56;;;;;;;35.25;20.58;;;8.00;99.90;;;;;;5087389;28;20050;-59
2023/04/09 00:19:22;;;;;;;41.63;21.20;;;8.00;99.90;;;;;;5087015;28;20048;-61
2023/04/09 00:21:49;;;;;;;42.70;21.52;;;8.00;99.90;;;;;;5087160;28;20518;-60
2023/04/09 00:24:16;;;;;;;39.67;23.92;;;8.00;99.90;;;;;;5086365;28;20055;-60
2023/04/09 00:26:43;;;;;;;40.95;20.70;;;8.00;99.90;;;;;;5086178;28;20123;-61
2023/04/09 00:29:10;;;;;;;40.10;22.02;;;8.00;99.90;;;;;;5086433;28;20083;-60
2023/04/09 00:31:36;;;;;;;37.63;20.23;;;8.00;99.90;;;;;;5088261;28;20048;-60
2023/04/09 00:34:04;;;;;;;40.13;22.20;;;8.00;99.90;;;;;;5089492;28;20040;-60
2023/04/09 00:36:30;;;;;;;35.25;19.45;;;8.00;99.90;;;;;;5090111;28;20048;-61
2023/04/09 00:38:57;;;;;;;38.38;21.30;;;8.00;99.90;;;;;;5091248;28;20123;-61
2023/04/09 00:41:24;;;;;;;43.65;20.83;;;8.10;99.90;;;;;;5090760;28;20083;-61
2023/04/09 00:43:51;;;;;;;37.35;20.73;;;8.10;99.90;;;;;;5090387;28;20494;-60
2023/04/09 00:46:18;;;;;;;37.22;21.65;;;8.10;99.90;;;;;;5091328;28;20131;-60
2023/04/09 00:48:45;;;;;;;42.90;21.27;;;8.00;99.90;;;;;;5090328;28;20052;-60
2023/04/09 00:51:11;;;;;;;37.72;21.08;;;8.10;99.90;;;;;;5090892;28;20044;-61
2023/04/09 00:53:38;;;;;;;40.17;21.73;;;8.10;99.90;;;;;;5090596;28;20126;-60
2023/04/09 00:56:05;;;;;;;35.70;20.50;;;8.20;99.90;;;;;;5089529;28;20059;-61
2023/04/09 00:58:32;;;;;;;39.13;21.38;;;8.20;99.90;;;;;;5089346;28;20135;-61
2023/04/09 01:00:58;;;;;;;34.35;19.42;;;8.20;99.90;;;;;;5090266;28;20052;-61
2023/04/09 01:03:25;;;;;;;39.28;21.20;;;8.30;99.90;;;;;;5090528;28;20062;-60
2023/04/09 01:06:15;;;;;;;37.95;21.13;;;8.30;99.90;;;;;;5090735;28;20131;-60
2023/04/09 01:09:30;;;;;;;37.08;20.52;;;8.30;99.90;;;;;;5079947;28;20071;-60
2023/04/09 01:12:12;;;;;;;38.45;20.10;;;8.20;99.90;;;;;;5076515;28;20131;-60
2023/04/09 01:14:55;;;;;;;36.40;21.85;;;8.30;99.90;;;;;;5088606;28;20064;-59
2023/04/09 01:18:03;;;;;;;39.63;22.35;;;8.30;99.90;;;;;;5097443;28;20047;-59
2023/04/09 01:20:42;;;;;;;36.55;21.98;;;8.20;99.90;;;;;;5078808;28;20044;-59
2023/04/09 01:23:09;;;;;;;35.22;22.30;;;8.20;99.90;;;;;;5088654;28;20063;-60
2023/04/09 01:25:58;;;;;;;37.08;21.58;;;8.20;99.90;;;;;;5089789;28;20044;-60
2023/04/09 01:28:31;;;;;;;35.30;20.25;;;8.10;99.90;;;;;;4734446;27;10000559;-60
2023/04/09 01:31:03;;;;;;;38.65;23.80;;;8.10;99.90;;;;;;5088605;28;20123;-60
2023/04/09 01:33:30;;;;;;;37.45;23.27;;;8.10;99.90;;;;;;5071322;28;20226;-60
2023/04/09 01:35:56;;;;;;;40.28;22.92;;;8.10;99.90;;;;;;5088360;28;20044;-60
2023/04/09 01:38:24;;;;;;;38.35;22.95;;;8.00;99.90;;;;;;5088997;28;20071;-61
2023/04/09 01:40:50;;;;;;;39.15;22.52;;;8.10;99.90;;;;;;5088198;28;20044;-61
2023/04/09 01:43:17;;;;;;;38.20;22.13;;;8.00;99.90;;;;;;5087358;28;20054;-62
2023/04/09 01:45:44;;;;;;;42.67;24.00;;;8.00;99.90;;;;;;5088392;28;20044;-61
2023/04/09 01:48:14;;;;;;;34.70;20.63;;;8.00;99.90;;;;;;5087092;28;20070;-61
2023/04/09 01:50:41;;;;;;;39.13;21.27;;;8.00;99.90;;;;;;5089115;28;20147;-59
2023/04/09 01:53:08;;;;;;;39.95;23.52;;;8.00;99.90;;;;;;5089334;28;20048;-60
2023/04/09 01:55:34;;;;;;;42.17;22.55;;;8.00;99.90;;;;;;5088462;28;20044;-60
2023/04/09 01:58:01;;;;;;;38.15;22.88;;;8.00;99.90;;;;;;5089667;28;20051;-60
2023/04/09 02:00:32;;;;;;;38.80;21.42;;;7.90;99.90;;;;;;5089241;28;20048;-60
2023/04/09 02:03:09;;;;;;;42.20;22.63;;;7.80;99.90;;;;;;5087806;28;20562;-60
2023/04/09 02:05:42;;;;;;;39.67;22.17;;;7.70;99.90;;;;;;5072271;28;20054;-60
2023/04/09 02:08:09;;;;;;;36.35;22.40;;;7.70;99.90;;;;;;5071648;28;20054;-60
2023/04/09 02:10:36;;;;;;;44.53;22.48;;;7.70;99.90;;;;;;5087657;28;20090;-59
2023/04/09 02:13:04;;;;;;;38.22;21.10;;;7.50;99.90;;;;;;5086942;28;20054;-58
2023/04/09 02:15:31;;;;;;;37.42;23.15;;;7.50;99.90;;;;;;5094498;28;20087;-60
2023/04/09 02:17:58;;;;;;;37.10;21.40;;;7.40;99.90;;;;;;5071380;28;20052;-59
2023/04/09 02:20:25;;;;;;;36.35;22.40;;;7.40;99.90;;;;;;5088735;28;20048;-59
2023/04/09 02:22:52;;;;;;;39.38;21.80;;;7.40;99.90;;;;;;5087782;28;20292;-59
2023/04/09 02:25:20;;;;;;;47.40;23.00;;;7.40;99.90;;;;;;5089244;28;20120;-59
2023/04/09 02:27:46;;;;;;;40.47;20.67;;;7.50;99.90;;;;;;5088750;28;20046;-59
2023/04/09 02:30:13;;;;;;;37.38;21.38;;;7.50;99.90;;;;;;5088942;28;20051;-60
2023/04/09 02:32:40;;;;;;;40.58;22.25;;;7.50;99.90;;;;;;5087424;28;20897;-59
2023/04/09 02:35:07;;;;;;;38.28;21.27;;;7.50;99.90;;;;;;5088786;28;20230;-60
2023/04/09 02:37:34;;;;;;;39.80;22.20;;;7.50;99.90;;;;;;5088360;28;20490;-60
2023/04/09 02:40:00;;;;;;;41.72;21.92;;;7.50;99.90;;;;;;5088814;28;20108;-60
2023/04/09 02:42:27;;;;;;;36.70;21.42;;;7.50;99.90;;;;;;5087519;28;20079;-60
2023/04/09 02:44:54;;;;;;;38.40;22.45;;;7.40;99.90;;;;;;5088616;28;20043;-60
2023/04/09 02:47:21;;;;;;;37.38;21.65;;;7.40;99.90;;;;;;5088149;28;20040;-60
2023/04/09 02:49:47;;;;;;;38.08;22.65;;;7.40;99.90;;;;;;5091910;28;20059;-59
2023/04/09 02:52:14;;;;;;;42.50;22.88;;;7.40;99.90;;;;;;5088624;28;20048;-60
2023/04/09 02:54:41;;;;;;;38.85;21.45;;;7.40;99.90;;;;;;5088068;28;20589;-59
2023/04/09 02:57:08;;;;;;;40.35;21.77;;;7.40;99.90;;;;;;5088311;28;20054;-62
2023/04/09 02:59:35;;;;;;;35.80;20.50;;;7.50;99.90;;;;;;5087182;28;20525;-61
2023/04/09 03:02:01;;;;;;;46.08;24.27;;;7.40;99.90;;;;;;5088081;28;20495;-61
2023/04/09 03:04:28;;;;;;;39.90;22.75;;;7.40;99.90;;;;;;5093305;28;20039;-60
2023/04/09 03:06:55;;;;;;;39.17;22.52;;;7.40;99.90;;;;;;5092903;28;20059;-59
2023/04/09 03:09:22;;;;;;;34.88;20.70;;;7.40;99.90;;;;;;5088095;28;20083;-59
2023/04/09 03:11:48;;;;;;;32.35;20.30;;;7.30;99.90;;;;;;5088119;28;20047;-60
2023/04/09 03:14:15;;;;;;;35.05;20.73;;;7.40;99.90;;;;;;5087651;28;20048;-60
2023/04/09 03:16:42;;;;;;;38.33;19.88;;;7.40;99.90;;;;;;5088044;28;20486;-60
2023/04/09 03:19:08;;;;;;;39.47;21.60;;;7.30;99.90;;;;;;5087775;28;20062;-60
2023/04/09 03:21:35;;;;;;;36.42;20.23;;;7.30;99.90;;;;;;5088022;28;20504;-60
2023/04/09 03:24:02;;;;;;;38.03;22.13;;;7.20;99.90;;;;;;5087667;28;20138;-60
2023/04/09 03:26:34;;;;;;;39.47;21.45;;;7.20;99.90;;;;;;5087342;28;20071;-59
2023/04/09 03:29:02;;;;;;;34.63;21.00;;;7.20;99.90;;;;;;5090148;28;20096;-60
2023/04/09 03:31:29;;;;;;;34.95;19.33;;;7.20;99.90;;;;;;5088436;28;20078;-60
2023/04/09 03:33:56;;;;;;;38.00;19.95;;;7.10;99.90;;;;;;5086441;28;20408;-60
2023/04/09 03:36:23;;;;;;;40.40;21.27;;;7.10;99.90;;;;;;5086472;28;20052;-58
2023/04/09 03:38:50;;;;;;;36.20;20.73;;;7.10;99.90;;;;;;5086555;28;20064;-60
2023/04/09 03:41:17;;;;;;;39.38;20.77;;;7.10;99.90;;;;;;5087019;28;20091;-60
2023/04/09 03:43:44;;;;;;;38.40;20.42;;;7.10;99.90;;;;;;5085851;28;20483;-60
2023/04/09 03:46:14;;;;;;;37.80;20.85;;;7.10;99.90;;;;;;5087809;28;20048;-60
2023/04/09 03:48:41;;;;;;;40.30;23.33;;;7.10;99.90;;;;;;5086181;28;20056;-60
2023/04/09 03:51:16;;;;;;;35.80;20.75;;;7.00;99.90;;;;;;5087562;28;20052;-60
2023/04/09 03:53:43;;;;;;;44.10;21.23;;;7.10;99.90;;;;;;5087328;28;20145;-60
2023/04/09 03:56:09;;;;;;;37.20;20.88;;;7.00;99.90;;;;;;5086189;28;20048;-60
2023/04/09 03:58:36;;;;;;;36.90;21.23;;;7.00;99.90;;;;;;5087342;28;20066;-60
2023/04/09 04:01:03;;;;;;;37.85;21.75;;;6.90;99.90;;;;;;5087404;28;20051;-60
2023/04/09 04:03:30;;;;;;;39.72;21.90;;;6.90;99.90;;;;;;5087296;28;20048;-60
2023/04/09 04:06:01;;;;;;;41.90;22.98;;;6.80;99.90;;;;;;5084547;28;20100;-62
2023/04/09 04:08:28;;;;;;;38.85;21.30;;;6.70;99.90;;;;;;5087420;28;20138;-61
2023/04/09 04:10:55;;;;;;;42.70;23.50;;;6.60;99.90;;;;;;5088679;28;20117;-61
2023/04/09 04:13:21;;;;;;;48.08;24.85;;;6.60;99.90;;;;;;5091352;28;20044;-61
2023/04/09 04:15:48;;;;;;;42.60;23.33;;;6.60;99.90;;;;;;5091191;28;20048;-61
2023/04/09 04:18:15;;;;;;;39.42;22.90;;;6.60;99.90;;;;;;5092533;28;20044;-61
2023/04/09 04:20:42;;;;;;;44.63;23.67;;;6.60;99.90;;;;;;5072722;28;20076;-61
2023/04/09 04:23:08;;;;;;;41.33;24.23;;;6.70;99.90;;;;;;5091093;28;20048;-60
2023/04/09 04:25:35;;;;;;;40.40;23.92;;;6.60;99.90;;;;;;5091459;28;20066;-60
2023/04/09 04:28:02;;;;;;;41.22;23.35;;;6.60;99.90;;;;;;5091056;28;20127;-59
2023/04/09 04:30:28;;;;;;;42.50;25.55;;;6.50;99.90;;;;;;5090950;28;20070;-59
2023/04/09 04:32:55;;;;;;;42.20;25.35;;;6.50;99.90;;;;;;5090205;28;20040;-59
2023/04/09 04:35:22;;;;;;;43.03;23.92;;;6.50;99.90;;;;;;5079366;28;20048;-59
2023/04/09 04:37:50;;;;;;;45.15;24.13;;;6.50;99.90;;;;;;5091061;28;20069;-60
2023/04/09 04:40:16;;;;;;;40.63;22.65;;;6.50;99.90;;;;;;5093343;28;20037;-60
2023/04/09 04:42:43;;;;;;;43.55;23.58;;;6.50;99.90;;;;;;5089638;28;20083;-60
2023/04/09 04:45:10;;;;;;;45.05;24.58;;;6.40;99.90;;;;;;5090734;28;20036;-60
2023/04/09 04:47:37;;;;;;;48.25;23.60;;;6.40;99.90;;;;;;5090207;28;20054;-60
2023/04/09 04:50:05;;;;;;;50.95;26.52;;;6.40;99.90;;;;;;5090451;28;20050;-60
2023/04/09 04:52:32;;;;;;;48.97;25.60;;;6.40;99.90;;;;;;5090446;28;20459;-60
2023/04/09 04:54:59;;;;;;;48.63;26.17;;;6.40;99.90;;;;;;5092739;28;20052;-60
2023/04/09 04:57:25;;;;;;;46.15;24.50;;;6.40;99.90;;;;;;5090218;28;20048;-59
2023/04/09 04:59:52;;;;;;;43.67;25.30;;;6.30;99.90;;;;;;5090899;28;20039;-61
2023/04/09 05:02:19;;;;;;;49.63;27.95;;;6.30;99.90;;;;;;5090316;28;20048;-61
2023/04/09 05:04:46;;;;;;;53.80;24.75;;;6.20;99.90;;;;;;5090303;28;20087;-65
2023/04/09 05:07:13;;;;;;;51.33;26.33;;;6.30;99.90;;;;;;5090495;28;20052;-59
2023/04/09 05:09:41;;;;;;;52.60;25.33;;;6.30;99.90;;;;;;5090856;28;20044;-59
2023/04/09 05:12:08;;;;;;;41.67;22.95;;;6.30;99.90;;;;;;5095215;28;20055;-60
2023/04/09 05:14:35;;;;;;;37.90;21.58;;;6.20;99.90;;;;;;5088809;28;20518;-59
2023/04/09 05:17:02;;;;;;;41.60;23.73;;;6.30;99.90;;;;;;5090232;28;20134;-61
2023/04/09 05:19:28;;;;;;;46.00;25.17;;;6.30;99.90;;;;;;5089874;28;20127;-61
2023/04/09 05:21:55;;;;;;;46.42;23.38;;;6.30;99.90;;;;;;5079223;28;20403;-60
2023/04/09 05:24:22;;;;;;;45.10;25.30;;;6.30;99.90;;;;;;5089849;28;20130;-60
2023/04/09 05:26:49;;;;;;;49.05;24.08;;;6.30;99.90;;;;;;5099896;28;20051;-60
2023/04/09 05:29:16;;;;;;;42.95;24.13;;;6.30;99.90;;;;;;5089861;28;20044;-60
2023/04/09 05:31:43;;;;;;;44.58;22.95;;;6.20;99.90;;;;;;5089393;28;20039;-60
2023/04/09 05:34:10;;;;;;;41.83;22.08;;;6.20;99.90;;;;;;5089149;28;20171;-61
2023/04/09 05:36:36;;;;;;;49.53;22.27;;;6.20;99.90;;;;;;5089724;28;20052;-60
2023/04/09 05:39:03;;;;;;;46.20;22.15;;;6.20;99.90;;;;;;5089802;28;20051;-60
2023/04/09 05:41:31;;;;;;;39.63;20.85;;;6.20;99.90;;;;;;5089362;28;20491;-62
2023/04/09 05:43:58;;;;;;;42.25;21.92;;;6.20;99.90;;;;;;5089218;28;20108;-61
2023/04/09 05:46:27;;;;;;;41.65;21.50;;;6.20;99.90;;;;;;5086489;28;20054;-59
2023/04/09 05:48:54;;;;;;;48.10;20.48;;;6.10;99.90;;;;;;5088988;28;20132;-60
2023/04/09 05:51:21;;;;;;;36.85;19.33;;;6.10;99.90;;;;;;5089495;28;20453;-60
2023/04/09 05:53:48;;;;;;;41.80;21.52;;;6.10;99.90;;;;;;5089169;28;20052;-60
2023/04/09 05:56:15;;;;;;;43.67;21.75;;;6.10;99.90;;;;;;5089377;28;20076;-61
2023/04/09 05:58:42;;;;;;;38.63;20.58;;;6.10;99.90;;;;;;5082799;28;20040;-60
2023/04/09 06:01:09;;;;;;;36.78;19.63;;;6.10;99.90;;;;;;5089185;28;20135;-60
2023/04/09 06:03:36;;;;;;;34.95;16.80;;;6.10;99.90;;;;;;5089361;28;20411;-60
2023/04/09 06:06:03;;;;;;;41.08;18.25;;;6.20;99.90;;;;;;5089117;28;20474;-60
2023/04/09 06:08:29;;;;;;;29.75;16.27;;;6.10;99.90;;;;;;5078252;28;20052;-60
2023/04/09 06:10:56;;;;;;;44.63;17.38;;;6.10;99.90;;;;;;5089291;28;20040;-60
2023/04/09 06:13:23;;;;;;;30.00;15.52;;;6.10;99.90;;;;;;5088706;28;20048;-60
2023/04/09 06:15:51;;;;;;;36.20;16.30;;;6.10;99.90;;;;;;5088753;28;20046;-60
2023/04/09 06:18:17;;;;;;;32.47;16.85;;;6.10;99.90;;;;;;5089104;28;20062;-60
2023/04/09 06:20:44;;;;;;;37.20;17.10;;;6.10;99.90;;;;;;5088381;28;20040;-60
2023/04/09 06:23:11;;;;;;;32.78;16.70;;;6.10;99.90;;;;;;5087443;28;20240;-60
2023/04/09 06:25:37;;;;;;;38.75;16.85;;;6.10;99.90;;;;;;5088724;28;20044;-60
2023/04/09 06:28:04;;;;;;;30.83;17.13;;;6.10;99.90;;;;;;5089036;28;20054;-61
2023/04/09 06:30:31;;;;;;;43.28;18.83;;;6.20;99.90;;;;;;5087965;28;20044;-59
2023/04/09 06:32:58;;;;;;;37.38;16.88;;;6.20;99.90;;;;;;5087879;28;20048;-59
2023/04/09 06:35:25;;;;;;;40.03;18.55;;;6.20;99.90;;;;;;5088370;28;20048;-60
2023/04/09 06:37:51;;;;;;;33.45;18.75;;;6.20;99.90;;;;;;5088726;28;20558;-60
2023/04/09 06:40:19;;;;;;;35.33;18.30;;;6.20;99.90;;;;;;5088285;28;20533;-59
2023/04/09 06:42:48;;;;;;;44.58;19.80;;;6.20;99.90;;;;;;5086309;28;20131;-63
2023/04/09 06:45:15;;;;;;;41.00;18.48;;;6.30;99.90;;;;;;5088561;28;20044;-60
2023/04/09 06:47:42;;;;;;;45.90;20.58;;;6.30;99.90;;;;;;5087223;28;20052;-60
2023/04/09 06:50:09;;;;;;;44.28;19.02;;;6.30;99.90;;;;;;4734282;28;10000526;-59
2023/04/09 06:52:36;;;;;;;34.22;17.73;;;6.30;99.90;;;;;;5085043;28;20079;-61
2023/04/09 06:55:03;;;;;;;34.92;18.33;;;6.40;99.90;;;;;;5074067;28;20048;-59
2023/04/09 06:57:30;;;;;;;40.17;19.77;;;6.50;99.90;;;;;;5083682;28;20107;-60
2023/04/09 06:59:56;;;;;;;41.75;19.67;;;6.50;99.90;;;;;;5084854;28;20127;-59
2023/04/09 07:02:23;;;;;;;37.00;19.33;;;6.50;99.90;;;;;;5082236;28;20047;-60
2023/04/09 07:04:50;;;;;;;41.20;20.05;;;6.50;99.90;;;;;;5084335;28;20036;-61
2023/04/09 07:07:17;;;;;;;41.90;19.70;;;6.50;99.90;;;;;;5084640;28;20067;-61
2023/04/09 07:09:44;;;;;;;44.65;22.45;;;6.60;99.90;;;;;;5084805;28;20135;-61
2023/04/09 07:12:10;;;;;;;37.58;21.20;;;6.60;99.90;;;;;;5088045;28;20048;-61
2023/04/09 07:14:37;;;;;;;41.70;19.38;;;6.70;99.90;;;;;;5084925;28;20052;-61
2023/04/09 07:17:04;;;;;;;34.13;18.48;;;6.80;99.90;;;;;;5084659;28;20044;-61
2023/04/09 07:19:31;;;;;;;36.35;19.42;;;6.90;99.90;;;;;;5085276;28;20138;-61
2023/04/09 07:21:58;;;;;;;45.78;22.77;;;6.90;99.90;;;;;;5084434;28;20048;-61
2023/04/09 07:24:24;;;;;;;45.22;21.55;;;7.00;99.90;;;;;;5083049;28;20071;-61
2023/04/09 07:26:52;;;;;;;36.55;20.33;;;7.00;99.90;;;;;;5084398;28;20066;-61
2023/04/09 07:29:19;;;;;;;33.88;19.27;;;7.20;99.90;;;;;;5084447;28;20052;-60
2023/04/09 07:31:46;;;;;;;34.60;19.83;;;7.30;99.90;;;;;;5083841;28;20055;-61
2023/04/09 07:34:13;;;;;;;35.58;19.13;;;7.30;99.90;;;;;;5083848;28;20147;-61
2023/04/09 07:36:41;;;;;;;38.58;22.13;;;7.50;99.90;;;;;;5090738;28;20163;-60
2023/04/09 07:39:08;;;;;;;38.25;21.60;;;7.60;99.90;;;;;;5084157;28;20163;-60
2023/04/09 07:41:36;;;;;;;33.47;20.52;;;7.70;99.90;;;;;;5083672;28;20059;-60
2023/04/09 07:44:05;;;;;;;38.08;21.85;;;7.70;99.90;;;;;;5086807;28;20130;-60
2023/04/09 07:46:31;;;;;;;38.25;22.00;;;7.80;99.90;;;;;;5088103;28;20044;-60
2023/04/09 07:48:58;;;;;;;35.50;21.25;;;7.90;99.90;;;;;;5088038;28;20056;-60
2023/04/09 07:51:25;;;;;;;33.95;20.95;;;8.00;99.90;;;;;;5095914;28;20048;-60
2023/04/09 07:53:52;;;;;;;36.28;21.60;;;8.10;99.90;;;;;;5087344;28;20070;-61
2023/04/09 07:56:19;;;;;;;39.65;23.75;;;8.10;99.90;;;;;;5088241;28;20060;-60
2023/04/09 07:58:48;;;;;;;41.60;22.17;;;8.20;99.90;;;;;;5080564;28;20055;-60
2023/04/09 08:01:14;;;;;;;36.22;21.20;;;8.20;99.90;;;;;;5088029;28;20048;-61
2023/04/09 08:03:41;;;;;;;38.13;22.48;;;8.40;99.90;;;;;;5085600;28;20051;-61
2023/04/09 08:06:08;;;;;;;39.45;21.55;;;8.50;99.90;;;;;;5095261;28;20135;-60
2023/04/09 08:08:35;;;;;;;37.00;22.70;;;8.60;99.90;;;;;;5088977;28;20062;-60
2023/04/09 08:11:02;;;;;;;36.47;21.20;;;8.70;99.90;;;;;;5086271;28;20525;-60
2023/04/09 08:13:29;;;;;;;38.95;23.45;;;8.80;99.90;;;;;;5086596;28;20087;-59
2023/04/09 08:15:56;;;;;;;44.00;23.88;;;8.80;99.90;;;;;;5087525;28;20044;-60
2023/04/09 08:18:22;;;;;;;40.33;23.30;;;8.80;99.90;;;;;;5087126;28;20503;-60
2023/04/09 08:20:49;;;;;;;41.60;24.05;;;8.80;99.90;;;;;;5086969;28;20048;-60
2023/04/09 08:23:16;;;;;;;43.65;24.23;;;8.80;99.90;;;;;;5090089;28;20418;-59
2023/04/09 08:25:43;;;;;;;35.15;21.30;;;8.90;99.90;;;;;;5086694;28;20062;-60
2023/04/09 08:28:09;;;;;;;37.65;22.80;;;8.90;99.90;;;;;;5087199;28;20499;-60
2023/04/09 08:30:36;;;;;;;43.22;24.13;;;9.10;99.90;;;;;;5086009;28;20084;-60
2023/04/09 08:33:04;;;;;;;45.25;24.85;;;9.10;99.90;;;;;;5086042;28;20131;-60
2023/04/09 08:35:30;;;;;;;47.47;26.50;;;9.10;99.90;;;;;;5082605;28;20131;-60
2023/04/09 08:37:58;;;;;;;45.38;25.40;;;9.10;99.90;;;;;;5068186;28;20048;-60
2023/04/09 08:40:25;;;;;;;43.53;26.35;;;9.10;99.90;;;;;;5087259;28;20216;-60
2023/04/09 08:42:56;;;;;;;38.80;23.00;;;9.30;99.90;;;;;;5085934;28;20063;-60
2023/04/09 08:45:23;;;;;;;39.13;23.88;;;9.40;99.90;;;;;;5085628;28;20054;-60
2023/04/09 08:47:50;;;;;;;44.03;24.45;;;9.50;99.90;;;;;;5086122;28;20828;-60
2023/04/09 08:50:17;;;;;;;38.92;23.95;;;9.60;99.90;;;;;;5086613;28;20055;-60
2023/04/09 08:52:45;;;;;;;45.00;25.35;;;9.60;99.90;;;;;;5086128;28;20135;-60
2023/04/09 08:55:12;;;;;;;42.10;25.33;;;9.80;99.90;;;;;;5087390;28;20036;-60
2023/04/09 08:57:39;;;;;;;38.08;23.95;;;9.90;99.90;;;;;;5085645;28;20067;-60
2023/04/09 09:00:07;;;;;;;42.80;25.42;;;10.00;99.90;;;;;;5084922;28;20116;-59
2023/04/09 09:02:34;;;;;;;40.65;25.30;;;10.10;99.90;;;;;;5084072;28;20709;-60
2023/04/09 09:05:01;;;;;;;36.50;22.52;;;10.20;99.90;;;;;;5086827;28;20123;-59
2023/04/09 09:07:28;;;;;;;39.13;24.48;;;10.30;99.90;;;;;;5088948;28;20117;-59
2023/04/09 09:09:57;;;;;;;36.80;23.38;;;10.50;99.90;;;;;;5088625;28;20044;-60
2023/04/09 09:12:40;;;;;;;36.38;23.88;;;10.60;99.90;;;;;;5088774;28;20066;-60
2023/04/09 09:15:26;;;;;;;36.42;24.23;;;10.70;99.90;;;;;;5088674;28;20091;-59
2023/04/09 09:17:54;;;;;;;41.10;22.88;;;10.80;99.90;;;;;;5087459;28;20593;-60
2023/04/09 09:20:21;;;;;;;34.90;22.02;;;10.90;99.90;;;;;;5088851;28;20133;-60
2023/04/09 09:22:50;;;;;;;32.97;19.63;;;11.00;99.90;;;;;;5088771;28;20388;-61
2023/04/09 09:25:23;;;;;;;34.38;19.58;;;11.20;99.90;;;;;;5087148;28;20515;-59
2023/04/09 09:27:50;;;;;;;30.88;18.77;;;11.30;99.90;;;;;;5087910;28;20044;-60
2023/04/09 09:30:21;;;;;;;31.38;19.13;;;11.50;99.90;;;;;;5083955;28;20095;-60
2023/04/09 09:33:08;;;;;;;30.60;18.67;;;11.80;99.90;;;;;;5088439;28;20133;-59
2023/04/09 09:35:49;;;;;;;29.63;17.58;;;12.30;99.90;;;;;;5087803;28;20094;-59
2023/04/09 09:38:16;;;;;;;30.65;18.85;;;12.80;99.90;;;;;;5088028;28;20052;-60
2023/04/09 09:40:43;;;;;;;27.65;18.17;;;13.20;99.90;;;;;;5088371;28;20093;-60
2023/04/09 09:43:11;;;;;;;25.35;15.93;;;13.40;99.90;;;;;;5076610;28;20575;-59
2023/04/09 09:45:40;;;;;;;23.27;14.82;;;13.60;99.90;;;;;;5088704;28;20206;-60
2023/04/09 09:48:09;;;;;;;25.50;16.02;;;13.40;99.90;;;;;;5088430;28;20060;-60
2023/04/09 09:50:37;;;;;;;25.70;15.40;;;13.40;99.90;;;;;;5088653;28;20056;-59
2023/04/09 09:53:07;;;;;;;28.25;17.15;;;13.30;99.90;;;;;;5088252;28;20118;-59
2023/04/09 09:55:39;;;;;;;24.45;14.85;;;13.10;99.90;;;;;;5083666;28;20135;-60
2023/04/09 09:58:16;;;;;;;24.05;12.52;;;12.90;99.90;;;;;;5086446;28;20047;-59
2023/04/09 10:00:46;;;;;;;23.63;12.65;;;13.00;99.90;;;;;;5085786;28;20052;-59
2023/04/09 10:03:20;;;;;;;18.52;10.98;;;13.20;99.90;;;;;;5086797;28;20044;-59
2023/04/09 10:05:47;;;;;;;19.67;10.27;;;13.60;99.90;;;;;;5086551;28;20113;-59
2023/04/09 10:08:14;;;;;;;15.68;10.68;;;13.90;99.90;;;;;;5088238;28;20062;-59
2023/04/09 10:10:41;;;;;;;22.83;10.20;;;13.90;99.90;;;;;;5086649;28;20043;-58
2023/04/09 10:13:12;;;;;;;18.35;11.65;;;13.80;99.90;;;;;;5087202;28;20052;-58
2023/04/09 10:15:39;;;;;;;16.60;9.82;;;13.60;99.90;;;;;;5087875;28;20070;-59
2023/04/09 10:18:05;;;;;;;18.83;10.13;;;13.50;99.90;;;;;;5087594;28;20051;-59
2023/04/09 10:20:39;;;;;;;21.77;13.50;;;13.40;99.90;;;;;;5087338;28;20052;-58
2023/04/09 10:23:14;;;;;;;18.48;11.77;;;13.40;99.90;;;;;;5086289;28;20556;-61
2023/04/09 10:25:41;;;;;;;18.42;11.00;;;13.40;99.90;;;;;;5087220;28;20052;-66
2023/04/09 10:28:17;;;;;;;15.45;10.05;;;13.40;99.90;;;;;;5082659;28;20495;-58
2023/04/09 10:30:45;;;;;;;18.38;12.43;;;13.40;99.90;;;;;;5086012;28;20035;-59
2023/04/09 10:33:13;;;;;;;16.08;10.73;;;13.40;99.90;;;;;;5083495;28;20455;-60
2023/04/09 10:35:40;;;;;;;24.77;10.95;;;13.40;99.90;;;;;;5086049;28;20036;-60
2023/04/09 10:38:08;;;;;;;23.15;10.85;;;13.40;99.90;;;;;;5085531;28;20137;-60
2023/04/09 10:40:50;;;;;;;16.52;10.10;;;13.40;99.90;;;;;;5085614;28;20272;-61
2023/04/09 10:43:18;;;;;;;22.48;11.25;;;13.40;99.90;;;;;;5083212;28;20048;-60
2023/04/09 10:45:50;;;;;;;21.15;11.55;;;13.40;99.90;;;;;;5084879;28;20047;-60
2023/04/09 10:48:18;;;;;;;21.45;10.73;;;13.40;99.90;;;;;;5083467;28;20058;-60
2023/04/09 10:50:45;;;;;;;19.30;11.27;;;13.40;99.90;;;;;;5084072;28;20048;-59
2023/04/09 10:53:22;;;;;;;22.55;14.23;;;13.40;99.90;;;;;;5085285;28;20116;-59
2023/04/09 10:55:51;;;;;;;19.70;11.13;;;13.40;99.90;;;;;;5084127;28;20097;-59
2023/04/09 10:58:18;;;;;;;23.27;12.07;;;13.40;99.90;;;;;;5084708;28;20066;-60
2023/04/09 11:00:48;;;;;;;19.20;13.27;;;13.50;99.90;;;;;;5085453;28;20086;-59
2023/04/09 11:03:29;;;;;;;21.92;11.77;;;13.50;99.90;;;;;;5084573;28;20143;-58
2023/04/09 11:06:05;;;;;;;19.60;11.80;;;13.50;99.90;;;;;;5080779;28;20044;-60
2023/04/09 11:08:34;;;;;;;18.60;11.35;;;13.50;99.90;;;;;;5085126;28;20040;-58
2023/04/09 11:11:02;;;;;;;23.25;11.75;;;13.60;99.90;;;;;;5085265;28;20063;-58
2023/04/09 11:13:30;;;;;;;24.08;13.55;;;13.60;99.90;;;;;;5084672;28;20048;-60
2023/04/09 11:15:57;;;;;;;22.63;11.60;;;13.60;99.90;;;;;;5084903;28;20051;-59
2023/04/09 11:18:25;;;;;;;19.23;10.65;;;13.70;99.90;;;;;;5080478;28;20392;-59
2023/04/09 11:20:56;;;;;;;21.85;13.75;;;13.70;99.90;;;;;;5082455;28;20422;-58
2023/04/09 11:23:23;;;;;;;20.23;12.90;;;13.70;99.90;;;;;;5084493;28;20101;-57
2023/04/09 11:25:50;;;;;;;22.67;12.05;;;13.80;99.90;;;;;;5083285;28;20040;-57
2023/04/09 11:28:17;;;;;;;18.25;11.63;;;13.80;99.90;;;;;;5083431;28;20147;-59
2023/04/09 11:30:45;;;;;;;21.10;13.23;;;13.80;99.90;;;;;;5083032;28;20044;-59
2023/04/09 11:33:13;;;;;;;21.52;13.27;;;13.90;99.90;;;;;;5083964;28;20151;-59
2023/04/09 11:35:39;;;;;;;23.25;12.85;;;13.80;99.90;;;;;;5084470;28;20044;-58
2023/04/09 11:38:10;;;;;;;24.60;12.95;;;13.90;99.90;;;;;;5083939;28;20056;-58
2023/04/09 11:40:44;;;;;;;21.55;12.75;;;13.90;99.90;;;;;;5084118;28;20044;-60
2023/04/09 11:43:11;;;;;;;21.55;13.25;;;14.00;99.90;;;;;;5082088;28;20075;-59
2023/04/09 11:45:38;;;;;;;18.45;12.15;;;14.20;99.90;;;;;;5080911;28;20044;-59
2023/04/09 11:48:05;;;;;;;24.63;14.27;;;14.20;99.90;;;;;;5083435;28;20105;-59
2023/04/09 11:50:31;;;;;;;24.67;13.98;;;14.20;99.90;;;;;;5083198;28;20478;-58
2023/04/09 11:52:59;;;;;;;23.27;14.77;;;14.10;99.90;;;;;;5084367;28;20059;-59
2023/04/09 11:55:28;;;;;;;24.50;15.60;;;14.00;99.90;;;;;;5084802;28;20039;-60
2023/04/09 11:58:00;;;;;;;30.00;15.57;;;14.10;99.90;;;;;;5084477;28;20079;-59
2023/04/09 12:00:27;;;;;;;24.00;13.90;;;14.20;99.90;;;;;;5084210;28;20089;-58
2023/04/09 12:03:02;;;;;;;23.23;14.27;;;14.30;99.90;;;;;;5083891;28;20174;-59
2023/04/09 12:05:31;;;;;;;22.45;15.60;;;14.40;99.90;;;;;;5083351;28;20055;-59
2023/04/09 12:08:00;;;;;;;29.30;14.52;;;14.40;99.90;;;;;;5067053;28;20055;-58
2023/04/09 12:10:28;;;;;;;19.33;11.80;;;14.40;99.90;;;;;;5083126;28;20170;-59
2023/04/09 12:12:59;;;;;;;26.05;13.85;;;14.40;99.90;;;;;;5084344;28;20499;-59
2023/04/09 12:15:26;;;;;;;23.15;13.13;;;14.50;99.90;;;;;;5084942;28;20184;-58
2023/04/09 12:17:53;;;;;;;20.25;13.00;;;14.50;99.90;;;;;;5066283;28;20060;-60
2023/04/09 12:20:30;;;;;;;24.05;13.23;;;14.60;99.90;;;;;;5084524;28;20052;-61
2023/04/09 12:22:59;;;;;;;17.73;11.70;;;14.70;99.90;;;;;;5084143;28;20484;-59
2023/04/09 12:25:26;;;;;;;23.77;13.32;;;14.80;99.90;;;;;;5083709;28;20140;-59
2023/04/09 12:27:54;;;;;;;32.42;13.52;;;14.90;99.90;;;;;;5084487;28;20075;-60
2023/04/09 12:30:22;;;;;;;17.75;12.77;;;14.90;99.90;;;;;;5086875;28;20086;-60
2023/04/09 12:32:49;;;;;;;23.75;11.55;;;15.00;99.90;;;;;;5086429;28;20093;-60
2023/04/09 12:35:16;;;;;;;20.80;13.45;;;15.10;99.90;;;;;;5087889;28;20048;-59
2023/04/09 12:37:43;;;;;;;22.23;12.70;;;15.20;99.90;;;;;;5087663;28;20076;-59
2023/04/09 12:40:12;;;;;;;22.50;13.57;;;15.20;99.90;;;;;;5087977;28;20509;-60